createdAt,value
2018-04-27T00:01:03.046Z,3.30
2018-04-27T00:03:30.498Z,3.07
2018-04-27T00:05:58.012Z,3.30
2018-04-27T00:08:26.228Z,2.97
2018-04-27T00:10:53.698Z,3.63
2018-04-27T00:13:21.145Z,3.13
2018-04-27T00:15:48.603Z,3.40
2018-04-27T00:18:16.812Z,3.03
2018-04-27T00:20:44.238Z,3.37
2018-04-27T00:23:11.704Z,2.70
2018-04-27T00:25:39.144Z,2.90
2018-04-27T00:28:06.602Z,3.30
2018-04-27T00:30:34.098Z,3.40
2018-04-27T00:33:01.556Z,3.60
2018-04-27T00:35:29.034Z,3.20
2018-04-27T00:37:56.495Z,3.13
2018-04-27T00:40:23.952Z,3.37
2018-04-27T00:42:52.165Z,3.30
2018-04-27T00:45:19.607Z,3.57
2018-04-27T00:47:47.073Z,2.47
2018-04-27T00:50:14.571Z,2.97
2018-04-27T00:52:54.725Z,3.33
2018-04-27T00:55:22.154Z,3.00
2018-04-27T00:57:49.605Z,2.60
2018-04-27T01:00:17.060Z,3.47
2018-04-27T01:02:44.526Z,3.30
2018-04-27T01:05:11.983Z,3.40
2018-04-27T01:07:39.464Z,2.87
2018-04-27T01:10:06.923Z,2.60
2018-04-27T01:12:34.378Z,3.07
2018-04-27T01:15:01.835Z,3.37
2018-04-27T01:17:29.318Z,2.80
2018-04-27T01:19:57.539Z,3.23
2018-04-27T01:22:24.997Z,2.93
2018-04-27T01:24:52.435Z,2.87
2018-04-27T01:27:19.894Z,2.47
2018-04-27T01:29:48.110Z,3.13
2018-04-27T01:32:15.582Z,3.23
2018-04-27T01:34:43.039Z,3.75
2018-04-27T01:37:11.253Z,3.00
2018-04-27T01:39:38.708Z,3.47
2018-04-27T01:42:06.183Z,3.93
2018-04-27T01:44:33.619Z,3.33
2018-04-27T01:47:01.064Z,3.67
2018-04-27T01:49:28.514Z,2.97
2018-04-27T01:51:56.732Z,3.45
2018-04-27T01:54:24.241Z,3.35
2018-04-27T01:56:51.687Z,3.50
2018-04-27T01:59:19.147Z,3.80
2018-04-27T02:01:46.599Z,3.00
2018-04-27T02:04:14.059Z,3.40
2018-04-27T02:06:41.532Z,4.63
2018-04-27T02:09:09.749Z,3.12
2018-04-27T02:11:37.203Z,4.50
2018-04-27T02:14:04.666Z,4.47
2018-04-27T02:16:32.218Z,3.58
2018-04-27T02:18:59.675Z,3.00
2018-04-27T02:21:27.132Z,3.00
2018-04-27T02:23:54.596Z,3.55
2018-04-27T02:26:22.052Z,2.85
2018-04-27T02:28:49.522Z,3.22
2018-04-27T02:31:16.963Z,3.33
2018-04-27T02:33:44.423Z,3.28
2018-04-27T02:36:12.639Z,3.37
2018-04-27T02:38:40.098Z,3.20
2018-04-27T02:41:07.548Z,3.10
2018-04-27T02:43:35.097Z,3.20
2018-04-27T02:46:02.597Z,3.37
2018-04-27T02:48:30.039Z,3.70
2018-04-27T02:50:57.541Z,3.55
2018-04-27T02:53:24.999Z,2.72
2018-04-27T02:55:53.227Z,3.65
2018-04-27T02:58:20.664Z,4.37
2018-04-27T03:00:48.149Z,3.55
2018-04-27T03:03:15.600Z,3.40
2018-04-27T03:05:43.071Z,3.33
2018-04-27T03:08:10.626Z,4.97
2018-04-27T03:10:38.054Z,3.40
2018-04-27T03:13:05.514Z,3.58
2018-04-27T03:15:32.970Z,3.37
2018-04-27T03:18:00.446Z,3.25
2018-04-27T03:20:27.885Z,3.30
2018-04-27T03:22:56.091Z,3.90
2018-04-27T03:25:23.544Z,3.85
2018-04-27T03:27:50.998Z,3.20
2018-04-27T03:30:18.459Z,3.90
2018-04-27T03:32:47.641Z,3.63
2018-04-27T03:35:15.623Z,3.20
2018-04-27T03:37:43.077Z,3.05
2018-04-27T03:40:11.349Z,3.60
2018-04-27T03:42:38.800Z,3.40
2018-04-27T03:45:06.270Z,4.87
2018-04-27T03:47:33.729Z,3.80
2018-04-27T03:50:01.970Z,3.45
2018-04-27T03:52:29.442Z,4.53
2018-04-27T03:54:56.924Z,4.40
2018-04-27T03:57:24.386Z,3.78
2018-04-27T04:00:03.815Z,3.95
2018-04-27T04:02:43.122Z,3.40
2018-04-27T04:05:19.432Z,4.60
2018-04-27T04:07:47.674Z,3.80
2018-04-27T04:10:15.132Z,3.45
2018-04-27T04:12:42.586Z,4.10
2018-04-27T04:15:10.808Z,3.62
2018-04-27T04:17:38.234Z,4.80
2018-04-27T04:20:05.695Z,4.07
2018-04-27T04:22:33.143Z,4.00
2018-04-27T04:25:00.609Z,4.12
2018-04-27T04:27:28.054Z,4.53
2018-04-27T04:29:56.294Z,4.43
2018-04-27T04:32:23.785Z,4.28
2018-04-27T04:34:51.967Z,3.92
2018-04-27T04:37:19.420Z,4.20
2018-04-27T04:39:46.871Z,4.95
2018-04-27T04:42:14.333Z,4.60
2018-04-27T04:44:41.804Z,3.75
2018-04-27T04:47:09.257Z,4.25
2018-04-27T04:49:36.769Z,3.95
2018-04-27T04:52:04.242Z,4.10
2018-04-27T04:54:31.722Z,4.17
2018-04-27T04:56:59.179Z,4.30
2018-04-27T04:59:26.635Z,4.72
2018-04-27T05:01:54.186Z,4.25
2018-04-27T05:04:21.662Z,3.40
2018-04-27T05:06:49.109Z,3.80
2018-04-27T05:09:16.752Z,4.28
2018-04-27T05:11:44.225Z,3.70
2018-04-27T05:14:11.678Z,4.20
2018-04-27T05:16:39.138Z,3.47
2018-04-27T05:19:06.594Z,4.33
2018-04-27T05:21:34.053Z,3.47
2018-04-27T05:24:01.509Z,4.10
2018-04-27T05:26:28.949Z,4.10
2018-04-27T05:28:56.405Z,3.73
2018-04-27T05:31:26.590Z,3.40
2018-04-27T05:33:54.826Z,3.40
2018-04-27T05:36:23.089Z,3.80
2018-04-27T05:38:50.560Z,3.70
2018-04-27T05:41:28.784Z,3.83
2018-04-27T05:43:56.228Z,3.27
2018-04-27T05:46:23.678Z,3.63
2018-04-27T05:48:51.177Z,3.70
2018-04-27T05:51:18.652Z,4.50
2018-04-27T05:53:47.011Z,3.87
2018-04-27T05:56:15.374Z,3.20
2018-04-27T05:58:42.884Z,3.50
2018-04-27T06:01:10.307Z,2.93
2018-04-27T06:03:49.783Z,3.40
2018-04-27T06:06:17.259Z,2.80
2018-04-27T06:08:44.767Z,3.23
2018-04-27T06:11:12.288Z,3.27
2018-04-27T06:13:39.654Z,2.93
2018-04-27T06:16:07.148Z,3.20
2018-04-27T06:18:34.549Z,4.67
2018-04-27T06:21:01.996Z,3.10
2018-04-27T06:23:29.449Z,3.40
2018-04-27T06:25:56.964Z,3.07
2018-04-27T06:28:24.419Z,2.93
2018-04-27T06:30:51.957Z,2.73
2018-04-27T06:33:19.383Z,2.93
2018-04-27T06:35:46.843Z,3.70
2018-04-27T06:38:14.297Z,2.77
2018-04-27T06:40:41.759Z,3.33
2018-04-27T06:43:09.209Z,4.00
2018-04-27T06:45:36.667Z,3.07
2018-04-27T06:48:04.915Z,3.30
2018-04-27T06:50:32.369Z,3.40
2018-04-27T06:52:59.827Z,2.70
2018-04-27T06:55:28.038Z,3.50
2018-04-27T06:57:55.488Z,5.30
2018-04-27T07:00:22.967Z,3.83
2018-04-27T07:02:50.409Z,3.40
2018-04-27T07:05:18.738Z,3.20
2018-04-27T07:07:46.118Z,3.80
2018-04-27T07:10:13.589Z,3.50
2018-04-27T07:12:41.779Z,2.83
2018-04-27T07:15:09.234Z,3.33
2018-04-27T07:17:36.683Z,3.60
2018-04-27T07:20:04.143Z,5.20
2018-04-27T07:22:31.575Z,4.00
2018-04-27T07:24:59.086Z,4.40
2018-04-27T07:27:26.563Z,3.50
2018-04-27T07:29:54.027Z,3.93
2018-04-27T07:32:23.290Z,3.53
2018-04-27T07:34:50.736Z,4.47
2018-04-27T07:37:19.213Z,4.23
2018-04-27T07:39:46.669Z,3.57
2018-04-27T07:42:14.893Z,4.83
2018-04-27T07:44:42.360Z,4.30
2018-04-27T07:47:09.818Z,5.20
2018-04-27T07:49:38.057Z,4.47
2018-04-27T07:52:05.491Z,5.80
2018-04-27T07:54:32.952Z,5.47
2018-04-27T07:57:00.404Z,4.70
2018-04-27T07:59:27.838Z,5.47
2018-04-27T08:01:55.283Z,5.07
2018-04-27T08:04:22.749Z,4.70
2018-04-27T08:06:51.932Z,5.00
2018-04-27T08:09:19.391Z,6.23
2018-04-27T08:11:46.862Z,5.80
2018-04-27T08:14:14.304Z,6.20
2018-04-27T08:16:41.784Z,5.60
2018-04-27T08:19:10.042Z,6.47
2018-04-27T08:21:37.507Z,6.47
2018-04-27T08:24:04.970Z,4.77
2018-04-27T08:26:32.426Z,5.40
2018-04-27T08:29:01.793Z,6.60
2018-04-27T08:31:29.275Z,6.20
2018-04-27T08:33:56.738Z,5.50
2018-04-27T08:36:24.183Z,5.83
2018-04-27T08:38:51.642Z,7.27
2018-04-27T08:41:19.850Z,5.13
2018-04-27T08:43:47.335Z,5.47
2018-04-27T08:46:14.798Z,5.77
2018-04-27T08:48:43.002Z,5.90
2018-04-27T08:51:10.461Z,5.47
2018-04-27T08:53:37.928Z,5.60
2018-04-27T08:56:05.380Z,5.40
2018-04-27T08:58:33.583Z,5.53
2018-04-27T09:01:01.038Z,5.43
2018-04-27T09:03:28.479Z,5.10
2018-04-27T09:05:55.933Z,7.10
2018-04-27T09:08:23.375Z,5.40
2018-04-27T09:10:50.836Z,4.63
2018-04-27T09:13:18.290Z,4.97
2018-04-27T09:15:46.498Z,5.97
2018-04-27T09:18:13.935Z,5.30
2018-04-27T09:20:41.421Z,5.50
2018-04-27T09:23:08.852Z,5.13
2018-04-27T09:25:36.289Z,4.80
2018-04-27T09:28:03.783Z,4.57
2018-04-27T09:30:31.222Z,4.57
2018-04-27T09:32:59.450Z,4.70
2018-04-27T09:35:26.938Z,4.93
2018-04-27T09:37:54.402Z,5.40
2018-04-27T09:40:22.648Z,5.10
2018-04-27T09:42:50.098Z,5.50
2018-04-27T09:45:17.542Z,5.40
2018-04-27T09:47:45.009Z,5.80
2018-04-27T09:50:12.466Z,5.17
2018-04-27T09:52:39.910Z,5.20
2018-04-27T09:55:07.332Z,5.30
2018-04-27T09:57:34.841Z,5.17
2018-04-27T10:00:03.035Z,4.60
2018-04-27T10:02:30.496Z,5.53
2018-04-27T10:04:57.950Z,5.23
2018-04-27T10:07:25.445Z,5.90
2018-04-27T10:09:52.915Z,5.03
2018-04-27T10:12:20.371Z,5.60
2018-04-27T10:14:47.837Z,4.37
2018-04-27T10:17:15.305Z,5.30
2018-04-27T10:19:43.533Z,5.40
2018-04-27T10:22:11.003Z,4.90
2018-04-27T10:24:39.201Z,6.10
2018-04-27T10:27:06.644Z,6.13
2018-04-27T10:29:34.104Z,7.07
2018-04-27T10:32:02.482Z,5.40
2018-04-27T10:34:30.724Z,5.10
2018-04-27T10:36:58.214Z,6.13
2018-04-27T10:39:26.442Z,5.30
2018-04-27T10:41:53.899Z,5.53
2018-04-27T10:44:21.403Z,5.80
2018-04-27T10:46:48.837Z,5.30
2018-04-27T10:49:16.283Z,5.90
2018-04-27T10:51:43.776Z,6.10
2018-04-27T10:54:11.311Z,5.73
2018-04-27T10:56:38.803Z,5.80
2018-04-27T10:59:06.262Z,6.33
2018-04-27T11:01:33.732Z,5.10
2018-04-27T11:04:01.193Z,5.40
2018-04-27T11:06:28.691Z,5.33
2018-04-27T11:08:56.147Z,4.77
2018-04-27T11:11:23.595Z,5.20
2018-04-27T11:13:51.046Z,4.70
2018-04-27T11:16:18.655Z,6.57
2018-04-27T11:18:46.845Z,6.57
2018-04-27T11:21:14.298Z,4.67
2018-04-27T11:23:41.736Z,6.00
2018-04-27T11:26:09.207Z,5.77
2018-04-27T11:28:36.684Z,7.30
2018-04-27T11:31:04.125Z,5.97
2018-04-27T11:33:31.577Z,5.53
2018-04-27T11:35:59.041Z,5.63
2018-04-27T11:38:26.523Z,6.13
2018-04-27T11:40:53.972Z,5.77
2018-04-27T11:43:21.443Z,5.43
2018-04-27T11:45:48.952Z,5.10
2018-04-27T11:48:16.387Z,5.23
2018-04-27T11:50:43.863Z,5.60
2018-04-27T11:53:11.412Z,5.53
2018-04-27T11:55:38.911Z,6.17
2018-04-27T11:58:06.357Z,5.40
2018-04-27T12:00:33.813Z,6.40
2018-04-27T12:03:02.019Z,5.80
2018-04-27T12:05:29.463Z,5.77
2018-04-27T12:07:56.906Z,5.67
2018-04-27T12:10:24.362Z,5.77
2018-04-27T12:12:51.872Z,5.70
2018-04-27T12:15:19.310Z,6.50
2018-04-27T12:17:46.758Z,5.40
2018-04-27T12:20:14.216Z,5.80
2018-04-27T12:22:41.668Z,5.80
2018-04-27T12:25:09.133Z,4.90
2018-04-27T12:27:36.612Z,5.83
2018-04-27T12:30:04.827Z,4.93
2018-04-27T12:32:32.318Z,5.60
2018-04-27T12:34:59.774Z,5.30
2018-04-27T12:37:27.219Z,5.70
2018-04-27T12:39:54.675Z,5.53
2018-04-27T12:42:22.146Z,4.13
2018-04-27T12:44:49.595Z,4.93
2018-04-27T12:47:17.059Z,4.27
2018-04-27T12:49:44.522Z,4.97
2018-04-27T12:52:12.934Z,5.93
2018-04-27T12:54:41.930Z,5.70
2018-04-27T12:57:09.390Z,6.30
2018-04-27T12:59:36.846Z,6.07
2018-04-27T13:02:05.084Z,5.47
2018-04-27T13:04:32.527Z,4.47
2018-04-27T13:06:59.993Z,5.13
2018-04-27T13:09:28.184Z,5.30
2018-04-27T13:11:55.625Z,5.30
2018-04-27T13:14:23.072Z,4.90
2018-04-27T13:16:50.527Z,5.63
2018-04-27T13:19:17.995Z,5.77
2018-04-27T13:21:45.451Z,5.10
2018-04-27T13:24:13.649Z,6.07
2018-04-27T13:26:41.212Z,5.30
2018-04-27T13:29:08.587Z,4.60
2018-04-27T13:31:36.044Z,5.07
2018-04-27T13:34:04.251Z,5.00
2018-04-27T13:36:31.703Z,4.70
2018-04-27T13:38:59.157Z,5.17
2018-04-27T13:41:26.604Z,4.87
2018-04-27T13:43:54.079Z,4.40
2018-04-27T13:46:22.261Z,5.03
2018-04-27T13:48:49.722Z,5.27
2018-04-27T13:51:17.246Z,4.93
2018-04-27T13:53:45.530Z,5.30
2018-04-27T13:56:12.983Z,5.33
2018-04-27T13:58:40.447Z,4.87
2018-04-27T14:01:07.907Z,4.77
2018-04-27T14:03:36.119Z,5.03
2018-04-27T14:06:03.563Z,6.17
2018-04-27T14:08:31.041Z,4.90
2018-04-27T14:10:58.474Z,4.53
2018-04-27T14:13:25.922Z,4.03
2018-04-27T14:15:53.368Z,5.60
2018-04-27T14:18:20.834Z,5.50
2018-04-27T14:20:49.049Z,5.40
2018-04-27T14:23:16.484Z,6.40
2018-04-27T14:25:44.722Z,5.53
2018-04-27T14:28:12.589Z,4.33
2018-04-27T14:30:40.013Z,4.50
2018-04-27T14:33:07.478Z,4.47
2018-04-27T14:35:34.934Z,5.70
2018-04-27T14:38:02.380Z,5.40
2018-04-27T14:40:29.814Z,5.73
2018-04-27T14:42:57.295Z,4.63
2018-04-27T14:45:25.508Z,4.10
2018-04-27T14:47:53.679Z,4.83
2018-04-27T14:50:21.133Z,4.73
2018-04-27T14:52:48.568Z,5.00
2018-04-27T14:55:16.011Z,5.10
2018-04-27T14:57:43.471Z,4.70
2018-04-27T15:00:10.903Z,5.10
2018-04-27T15:02:39.142Z,4.10
2018-04-27T15:05:06.621Z,4.13
2018-04-27T15:07:34.095Z,4.50
2018-04-27T15:10:01.526Z,4.20
2018-04-27T15:12:29.750Z,3.97
2018-04-27T15:14:57.205Z,4.00
2018-04-27T15:17:25.631Z,5.07
2018-04-27T15:19:53.070Z,4.50
2018-04-27T15:22:20.526Z,4.70
2018-04-27T15:24:47.982Z,4.50
2018-04-27T15:27:16.204Z,4.20
2018-04-27T15:29:43.668Z,4.23
2018-04-27T15:32:11.117Z,5.03
2018-04-27T15:34:38.581Z,4.90
2018-04-27T15:37:06.080Z,4.83
2018-04-27T15:39:33.489Z,4.30
2018-04-27T15:42:00.963Z,5.37
2018-04-27T15:44:28.416Z,4.67
2018-04-27T15:46:55.886Z,4.90
2018-04-27T15:49:23.372Z,4.47
2018-04-27T15:51:50.853Z,4.00
2018-04-27T15:54:18.366Z,4.43
2018-04-27T15:56:45.769Z,4.40
2018-04-27T15:59:13.982Z,4.43
2018-04-27T16:01:41.455Z,4.63
2018-04-27T16:04:08.895Z,4.40
2018-04-27T16:06:36.350Z,4.90
2018-04-27T16:09:04.561Z,4.40
2018-04-27T16:11:32.113Z,3.73
2018-04-27T16:14:00.402Z,4.80
2018-04-27T16:16:28.834Z,4.30
2018-04-27T16:18:58.994Z,4.60
2018-04-27T16:21:27.529Z,4.47
2018-04-27T16:23:54.972Z,3.73
2018-04-27T16:26:23.313Z,6.80
2018-04-27T16:28:50.817Z,4.03
2018-04-27T16:31:18.295Z,3.87
2018-04-27T16:33:45.748Z,4.30
2018-04-27T16:36:13.191Z,3.93
2018-04-27T16:38:40.647Z,4.57
2018-04-27T16:41:08.151Z,4.37
2018-04-27T16:43:35.776Z,3.80
2018-04-27T16:46:03.282Z,4.30
2018-04-27T16:48:30.746Z,5.20
2018-04-27T16:50:58.182Z,3.73
2018-04-27T16:53:25.646Z,3.90
2018-04-27T16:55:53.846Z,3.97
2018-04-27T16:58:21.325Z,5.20
2018-04-27T17:00:48.744Z,4.10
2018-04-27T17:03:16.198Z,4.30
2018-04-27T17:05:43.655Z,4.10
2018-04-27T17:08:11.114Z,4.10
2018-04-27T17:10:38.569Z,3.73
2018-04-27T17:13:06.765Z,4.60
2018-04-27T17:15:34.202Z,4.70
2018-04-27T17:18:01.650Z,4.23
2018-04-27T17:20:29.147Z,4.00
2018-04-27T17:22:56.772Z,3.63
2018-04-27T17:25:24.226Z,3.90
2018-04-27T17:27:51.686Z,3.97
2018-04-27T17:30:19.145Z,5.40
2018-04-27T17:32:46.603Z,4.97
2018-04-27T17:35:14.122Z,3.70
2018-04-27T17:37:42.316Z,3.77
2018-04-27T17:40:09.794Z,4.20
2018-04-27T17:42:38.018Z,3.83
2018-04-27T17:45:05.491Z,3.53
2018-04-27T17:47:32.949Z,4.70
2018-04-27T17:50:00.447Z,4.20
2018-04-27T17:52:27.891Z,5.30
2018-04-27T17:54:55.359Z,4.60
2018-04-27T17:57:22.818Z,4.53
2018-04-27T17:59:50.283Z,3.73
2018-04-27T18:02:17.924Z,5.30
2018-04-27T18:04:45.426Z,3.70
2018-04-27T18:07:12.862Z,4.60
2018-04-27T18:09:40.313Z,4.47
2018-04-27T18:12:07.843Z,4.70
2018-04-27T18:14:35.235Z,4.27
2018-04-27T18:17:02.666Z,4.53
2018-04-27T18:19:30.118Z,4.83
2018-04-27T18:21:57.569Z,5.40
2018-04-27T18:24:25.037Z,5.83
2018-04-27T18:26:52.495Z,4.80
2018-04-27T18:29:19.950Z,5.57
2018-04-27T18:31:47.397Z,6.10
2018-04-27T18:34:14.885Z,3.67
2018-04-27T18:36:42.320Z,5.00
2018-04-27T18:39:09.770Z,5.60
2018-04-27T18:41:37.237Z,4.80
2018-04-27T18:44:04.694Z,4.70
2018-04-27T18:46:32.151Z,5.20
2018-04-27T18:48:59.605Z,6.87
2018-04-27T18:51:27.828Z,6.60
2018-04-27T18:53:55.284Z,5.80
2018-04-27T18:56:22.740Z,6.00
2018-04-27T18:58:50.207Z,5.83
2018-04-27T19:01:18.470Z,5.00
2018-04-27T19:03:45.886Z,5.57
2018-04-27T19:06:13.331Z,6.13
2018-04-27T19:08:40.802Z,6.70
2018-04-27T19:11:08.281Z,6.13
2018-04-27T19:13:35.744Z,5.73
2018-04-27T19:16:03.178Z,6.17
2018-04-27T19:18:30.635Z,7.03
2018-04-27T19:20:58.891Z,5.80
2018-04-27T19:23:26.339Z,5.40
2018-04-27T19:25:53.812Z,5.17
2018-04-27T19:28:22.002Z,6.50
2018-04-27T19:30:49.462Z,5.50
2018-04-27T19:33:16.922Z,5.60
2018-04-27T19:35:44.408Z,4.70
2018-04-27T19:38:12.637Z,5.23
2018-04-27T19:40:40.090Z,4.70
2018-04-27T19:43:07.548Z,4.60
2018-04-27T19:45:35.750Z,5.67
2018-04-27T19:48:03.206Z,5.47
2018-04-27T19:50:30.646Z,5.03
2018-04-27T19:52:58.097Z,4.30
2018-04-27T19:55:25.539Z,4.70
2018-04-27T19:57:53.010Z,4.93
2018-04-27T20:00:20.486Z,5.67
2018-04-27T20:02:47.934Z,5.13
2018-04-27T20:05:15.393Z,5.30
2018-04-27T20:07:42.868Z,5.60
2018-04-27T20:10:11.116Z,6.27
2018-04-27T20:12:38.592Z,5.10
2018-04-27T20:15:06.050Z,5.83
2018-04-27T20:17:37.225Z,5.77
2018-04-27T20:20:05.610Z,6.20
2018-04-27T20:22:33.061Z,6.90
2018-04-27T20:25:01.239Z,7.10
2018-04-27T20:27:46.414Z,7.20
2018-04-27T20:30:14.729Z,8.37
2018-04-27T20:32:43.082Z,13.40
2018-04-27T20:35:14.223Z,7.67
2018-04-27T20:37:41.681Z,8.17
2018-04-27T20:40:09.250Z,8.60
2018-04-27T20:42:37.574Z,7.37
2018-04-27T20:45:07.465Z,6.90
2018-04-27T20:47:34.923Z,6.40
2018-04-27T20:50:02.713Z,8.50
2018-04-27T20:52:33.140Z,7.40
2018-04-27T20:55:01.724Z,7.10
2018-04-27T20:57:29.199Z,8.53
2018-04-27T20:59:59.499Z,8.80
2018-04-27T21:02:26.979Z,6.57
2018-04-27T21:04:55.271Z,6.90
2018-04-27T21:07:22.727Z,7.80
2018-04-27T21:09:50.184Z,7.80
2018-04-27T21:12:17.644Z,8.80
2018-04-27T21:14:45.114Z,7.83
2018-04-27T21:17:12.687Z,8.00
2018-04-27T21:19:40.127Z,7.50
2018-04-27T21:22:10.299Z,7.60
2018-04-27T21:24:38.788Z,7.00
2018-04-27T21:27:06.235Z,8.23
2018-04-27T21:29:36.258Z,7.63
2018-04-27T21:32:03.854Z,7.80
2018-04-27T21:34:32.176Z,7.60
2018-04-27T21:36:59.640Z,7.33
2018-04-27T21:39:27.959Z,6.90
2018-04-27T21:41:58.299Z,8.80
2018-04-27T21:44:28.639Z,7.70
2018-04-27T21:47:06.883Z,8.57
2018-04-27T21:49:35.453Z,7.37
2018-04-27T21:52:23.650Z,8.13
2018-04-27T21:54:51.107Z,7.80
2018-04-27T21:57:25.282Z,7.83
2018-04-27T22:00:12.142Z,8.40
2018-04-27T22:02:41.393Z,8.50
2018-04-27T22:05:11.756Z,7.80
2018-04-27T22:07:39.288Z,8.00
2018-04-27T22:10:06.734Z,8.30
2018-04-27T22:12:35.515Z,8.80
2018-04-27T22:15:02.978Z,8.00
2018-04-27T22:17:31.188Z,8.77
2018-04-27T22:19:59.474Z,9.20
2018-04-27T22:22:26.924Z,8.70
2018-04-27T22:24:55.913Z,8.30
2018-04-27T22:27:26.099Z,9.23
2018-04-27T22:30:08.250Z,8.93
2018-04-27T22:32:35.746Z,8.50
2018-04-27T22:35:04.932Z,8.60
2018-04-27T22:37:44.270Z,9.07
2018-04-27T22:40:18.362Z,9.00
2018-04-27T22:42:56.818Z,8.27
2018-04-27T22:45:27.223Z,10.07
2018-04-27T22:48:17.733Z,8.67
2018-04-27T22:50:59.017Z,8.60
2018-04-27T22:53:31.030Z,8.73
2018-04-27T22:55:58.501Z,9.00
2018-04-27T22:58:26.726Z,7.77
2018-04-27T23:01:11.723Z,7.40
2018-04-27T23:03:39.952Z,8.33
2018-04-27T23:06:07.480Z,8.27
2018-04-27T23:08:34.939Z,8.10
2018-04-27T23:11:04.858Z,7.27
2018-04-27T23:13:33.934Z,8.57
2018-04-27T23:16:01.386Z,8.43
2018-04-27T23:18:38.783Z,8.50
2018-04-27T23:21:06.999Z,8.50
2018-04-27T23:23:34.446Z,7.80
2018-04-27T23:26:01.887Z,7.60
2018-04-27T23:28:29.362Z,7.70
2018-04-27T23:30:58.404Z,6.73
2018-04-27T23:33:25.867Z,7.30
2018-04-27T23:35:55.113Z,7.97
2018-04-27T23:38:23.337Z,7.03
2018-04-27T23:40:56.487Z,7.07
2018-04-27T23:43:25.892Z,7.20
2018-04-27T23:45:54.122Z,7.63
2018-04-27T23:48:21.577Z,6.50
2018-04-27T23:50:49.644Z,7.70
2018-04-27T23:53:17.091Z,7.90
2018-04-27T23:55:45.316Z,7.20
2018-04-27T23:58:14.257Z,7.37
